Las Vegas, Nevada
Traffic Map
Current Weather Conditions
Las Vegas, Nevada
Clear
Clear
69°
Feels Like: 69°
Wind Chill: 69° Ceiling: Unl
Heat Index: 69° Visibility: 10mi
Dew Point: 37° Wind: 12mph
Humidity: 31% Direction: 210° (SSW)
Pressure: 29.98in Gusts: 0mph
Raw Report DataKLAS 250956Z 21010KT 10SM CLR 21/03 A2998 RMK AO2 SLP132 T02060028
Traffic Incident Summary
Active as of:
Severity:
Category:
InformationThere was an issue retrieving the traffic information for this location. Please try a different location or try again shortly.
Advertisements
Track Severe Weather on mobile